sim
Sign-in with your pilot id or email,
or register
Callsign
Passwort

Schedule Details

Flight Number: DLH104
Departure: Frankfurt Airport (EDDF) at 11:15
Arrival: Munich Airport (EDDM) at 12:10
Route: Lufthansa Passenger Schedule. Enter filed route here before submitting Pirep.

Weather Information
Getting current METAR information for EDDF 211950Z VRB01KT CAVOK 16/08 Q1014 NOSIG
Getting current METAR information for EDDM 211950Z 00000KT CAVOK 13/12 Q1016 NOSIG

Schedule Frequency

Route Map